Time;durP1;ratioP1;P1;durP2;ratioP2;P2;SDS_P1;SDS_P2;PMS_P1;PMS_P2;Temp;Humidity;BMP_temperature;BMP_pressure;BME280_temperature;BME280_humidity;BME280_pressure;Samples;Min_cycle;Max_cycle;Signal;HPM_P1;HPM_P2
2022/05/26 00:01:55;;;;;;;7.10;6.40;;;12.80;99.90;;;;;;5035680;28;20877;-81
2022/05/26 00:04:20;;;;;;;7.03;6.43;;;12.80;99.90;;;;;;5035668;28;20172;-76
2022/05/26 00:06:46;;;;;;;6.50;5.93;;;12.80;99.90;;;;;;5033197;28;20203;-77
2022/05/26 00:09:12;;;;;;;6.40;5.87;;;12.70;99.90;;;;;;5035455;28;20404;-78
2022/05/26 00:11:38;;;;;;;5.90;5.40;;;12.70;99.90;;;;;;5035393;28;20170;-77
2022/05/26 00:14:07;;;;;;;6.97;6.30;;;12.70;99.90;;;;;;5034805;28;20405;-80
2022/05/26 00:16:44;;;;;;;8.67;7.50;;;12.80;99.90;;;;;;5033202;28;20449;-75
2022/05/26 00:19:11;;;;;;;8.57;7.00;;;12.80;99.90;;;;;;5035301;28;20479;-77
2022/05/26 00:21:37;;;;;;;6.30;5.70;;;12.70;99.90;;;;;;5035340;28;20376;-77
2022/05/26 00:24:03;;;;;;;7.67;6.97;;;12.70;99.90;;;;;;5033422;28;20430;-77
2022/05/26 00:26:30;;;;;;;7.40;6.77;;;12.70;99.90;;;;;;5033465;28;20541;-84
2022/05/26 00:28:57;;;;;;;7.17;6.50;;;12.80;99.90;;;;;;5035358;28;20783;-80
2022/05/26 00:31:24;;;;;;;6.70;6.10;;;12.80;99.90;;;;;;5035210;28;20381;-78
2022/05/26 00:33:50;;;;;;;7.13;6.43;;;12.80;99.90;;;;;;5033976;28;20373;-80
2022/05/26 00:36:17;;;;;;;7.73;6.93;;;12.70;99.90;;;;;;5033512;28;20421;-77
2022/05/26 00:38:43;;;;;;;8.30;6.70;;;12.70;99.90;;;;;;5034288;28;20199;-80
2022/05/26 00:41:14;;;;;;;8.27;5.90;;;12.70;99.90;;;;;;5032880;28;20405;-78
2022/05/26 00:43:44;;;;;;;7.17;6.50;;;12.70;1.00;;;;;;5035063;28;20369;-80
2022/05/26 00:46:21;;;;;;;18.13;6.80;;;12.70;1.00;;;;;;5034236;28;20501;-83
2022/05/26 00:48:52;;;;;;;6.83;6.23;;;12.80;1.00;;;;;;5034222;28;20436;-78
2022/05/26 00:51:23;;;;;;;6.40;5.80;;;12.80;1.00;;;;;;5034729;28;20381;-79
2022/05/26 00:53:58;;;;;;;9.60;6.13;;;12.80;1.00;;;;;;5033835;28;20433;-80
2022/05/26 00:56:41;;;;;;;7.50;6.80;;;12.80;1.00;;;;;;5033318;28;20420;-78
2022/05/26 00:59:30;;;;;;;7.50;6.60;;;12.80;1.00;;;;;;5034646;28;20424;-79
2022/05/26 01:01:58;;;;;;;6.67;6.17;;;12.90;1.00;;;;;;5034320;28;20899;-78
2022/05/26 01:04:26;;;;;;;6.70;6.20;;;12.90;1.00;;;;;;5034221;28;20437;-78
2022/05/26 01:06:59;;;;;;;7.77;6.97;;;12.90;1.00;;;;;;5033628;28;20464;-79
2022/05/26 01:09:25;;;;;;;6.80;5.90;;;12.90;1.00;;;;;;5034439;28;20416;-77
2022/05/26 01:11:50;;;;;;;9.00;6.20;;;12.90;1.00;;;;;;5034355;28;20884;-77
2022/05/26 01:14:18;;;;;;;11.50;6.03;;;12.90;1.00;;;;;;5033010;28;20191;-78
2022/05/26 01:17:07;;;;;;;8.33;7.10;;;12.90;1.00;;;;;;5033597;28;20174;-78
2022/05/26 01:20:18;;;;;;;7.17;6.40;;;12.90;1.00;;;;;;5033741;28;20504;-77
2022/05/26 01:23:03;;;;;;;7.80;7.00;;;12.90;1.00;;;;;;5033772;28;20428;-78
2022/05/26 01:25:55;;;;;;;7.37;5.30;;;12.90;1.00;;;;;;5034040;28;20994;-80
2022/05/26 01:28:51;;;;;;;8.80;5.50;;;13.00;1.00;;;;;;5032923;28;20401;-79
2022/05/26 01:31:17;;;;;;;8.03;4.57;;;13.00;1.00;;;;;;5033333;28;20414;-77
2022/05/26 01:34:04;;;;;;;14.10;7.17;;;13.00;1.00;;;;;;5034128;28;20405;-78
2022/05/26 01:36:47;;;;;;;7.30;5.87;;;13.00;1.00;;;;;;5033082;28;20189;-81
2022/05/26 01:39:35;;;;;;;8.03;6.00;;;13.00;1.00;;;;;;5033526;28;20519;-78
2022/05/26 01:42:22;;;;;;;6.37;5.80;;;13.10;1.00;;;;;;5033963;28;20403;-77
2022/05/26 01:44:52;;;;;;;13.23;6.83;;;13.10;1.00;;;;;;5033940;28;20389;-78
2022/05/26 01:47:17;;;;;;;8.63;6.70;;;13.10;1.00;;;;;;5031405;28;20440;-79
2022/05/26 01:49:49;;;;;;;7.03;6.10;;;13.10;1.00;;;;;;5033270;28;20910;-78
2022/05/26 01:52:32;;;;;;;8.47;5.43;;;13.10;1.00;;;;;;5033775;28;20306;-80
2022/05/26 01:55:17;;;;;;;18.20;6.80;;;13.10;1.00;;;;;;5033862;28;20413;-77
2022/05/26 01:57:52;;;;;;;7.90;5.17;;;13.10;1.00;;;;;;5031010;28;20432;-80
2022/05/26 02:00:19;;;;;;;10.67;5.43;;;13.10;1.00;;;;;;5033617;28;20380;-79
2022/05/26 02:03:11;;;;;;;10.40;5.93;;;13.20;1.00;;;;;;5033523;28;20885;-79
2022/05/26 02:05:55;;;;;;;8.93;5.40;;;13.20;1.00;;;;;;5033443;28;20431;-77
2022/05/26 02:08:41;;;;;;;10.40;5.20;;;13.20;1.00;;;;;;5032557;28;20484;-80
2022/05/26 02:11:14;;;;;;;18.50;6.80;;;13.20;1.00;;;;;;5032340;28;20381;-81
2022/05/26 02:13:48;;;;;;;9.17;4.70;;;13.20;1.00;;;;;;5032492;28;20967;-80
2022/05/26 02:16:18;;;;;;;14.57;5.00;;;13.20;1.00;;;;;;5032888;28;20408;-78
2022/05/26 02:18:58;;;;;;;9.67;5.07;;;13.20;1.00;;;;;;5032486;28;20393;-80
2022/05/26 02:21:36;;;;;;;7.47;4.47;;;13.20;1.00;;;;;;5033485;28;20412;-79
2022/05/26 02:24:20;;;;;;;8.77;3.80;;;13.20;1.00;;;;;;5033276;28;20389;-78
2022/05/26 02:26:46;;;;;;;10.43;4.80;;;13.20;1.00;;;;;;5031175;28;20436;-79
2022/05/26 02:31:57;;;;;;;9.07;4.40;;;13.10;1.00;;;;;;5033449;28;20369;-79
2022/05/26 02:34:25;;;;;;;7.97;4.40;;;13.10;1.00;;;;;;5033371;28;20787;-81
2022/05/26 02:36:56;;;;;;;6.50;3.93;;;13.10;1.00;;;;;;5031758;28;20818;-78
2022/05/26 02:39:21;;;;;;;4.00;3.60;;;13.10;1.00;;;;;;5033046;28;20441;-79
2022/05/26 02:41:47;;;;;;;14.07;3.80;;;13.10;1.00;;;;;;5033167;28;20411;-81
2022/05/26 02:44:13;;;;;;;10.60;5.67;;;13.10;1.00;;;;;;5032051;28;20234;-79
2022/05/26 02:46:52;;;;;;;7.87;4.07;;;13.10;1.00;;;;;;5032151;28;20440;-78
2022/05/26 02:49:32;;;;;;;15.47;4.10;;;13.20;1.00;;;;;;5033171;28;20413;-78
2022/05/26 02:52:41;;;;;;;13.93;5.60;;;13.20;1.00;;;;;;5032971;28;20802;-79
2022/05/26 02:55:32;;;;;;;10.57;4.37;;;13.20;1.00;;;;;;5031346;28;20822;-79
2022/05/26 02:58:16;;;;;;;5.30;4.30;;;13.30;1.00;;;;;;5032129;28;20862;-77
2022/05/26 03:00:42;;;;;;;8.03;4.00;;;13.20;1.00;;;;;;5048657;28;20404;-78
2022/05/26 03:03:26;;;;;;;8.70;3.87;;;13.20;1.00;;;;;;5036722;28;20738;-77
2022/05/26 03:06:13;;;;;;;11.73;5.10;;;13.30;1.00;;;;;;5036752;28;20202;-78
2022/05/26 03:08:42;;;;;;;11.10;4.37;;;13.30;1.00;;;;;;5035904;28;20450;-81
2022/05/26 03:11:16;;;;;;;13.83;5.23;;;13.20;1.00;;;;;;5036558;28;20377;-79
2022/05/26 03:13:41;;;;;;;8.50;4.47;;;13.20;1.00;;;;;;5036205;28;20516;-78
2022/05/26 03:16:07;;;;;;;16.00;5.80;;;13.30;1.00;;;;;;5035736;28;20923;-78
2022/05/26 03:18:34;;;;;;;12.53;3.93;;;13.30;1.00;;;;;;5034485;28;20560;-83
2022/05/26 03:21:01;;;;;;;6.33;4.33;;;13.30;1.00;;;;;;5036433;28;20414;-77
2022/05/26 03:23:28;;;;;;;9.10;4.03;;;13.30;1.00;;;;;;5036409;28;20763;-81
2022/05/26 03:25:56;;;;;;;9.87;3.33;;;13.20;1.00;;;;;;5036382;28;20439;-78
2022/05/26 03:28:22;;;;;;;5.70;3.33;;;13.20;99.90;;;;;;5035470;28;20401;-77
2022/05/26 03:30:48;;;;;;;7.57;3.60;;;13.30;99.90;;;;;;5035891;28;20755;-78
2022/05/26 03:33:13;;;;;;;8.47;3.13;;;13.30;99.90;;;;;;5035368;28;20544;-79
2022/05/26 03:41:08;;;;;;;9.43;3.73;;;13.30;99.90;;;;;;5036269;28;20429;-79
2022/05/26 03:43:42;;;;;;;9.80;3.57;;;13.30;99.90;;;;;;5036171;28;20413;-79
2022/05/26 03:46:08;;;;;;;6.37;3.50;;;13.30;99.90;;;;;;5036186;28;20427;-78
2022/05/26 03:48:35;;;;;;;5.27;3.23;;;13.30;99.90;;;;;;5035072;28;20418;-78
2022/05/26 03:51:00;;;;;;;6.97;3.23;;;13.30;99.90;;;;;;5034507;28;20408;-78
2022/05/26 03:53:26;;;;;;;21.77;4.60;;;13.40;99.90;;;;;;5035869;28;20730;-79
2022/05/26 03:55:52;;;;;;;10.60;4.93;;;13.30;99.90;;;;;;5036013;28;20176;-77
2022/05/26 03:58:18;;;;;;;6.80;4.00;;;13.20;99.90;;;;;;5034840;28;20199;-79
2022/05/26 04:00:44;;;;;;;16.97;3.77;;;13.30;99.90;;;;;;5034777;28;20222;-80
2022/05/26 04:03:10;;;;;;;7.73;3.13;;;13.30;99.90;;;;;;5035743;28;20175;-78
2022/05/26 04:05:35;;;;;;;16.93;3.87;;;13.30;99.90;;;;;;5034550;28;20494;-82
2022/05/26 04:08:01;;;;;;;4.97;2.60;;;13.30;99.90;;;;;;5034617;28;20191;-78
2022/05/26 04:10:27;;;;;;;9.17;3.70;;;13.30;99.90;;;;;;5035306;28;20178;-79
2022/05/26 04:12:53;;;;;;;5.73;2.90;;;13.30;99.90;;;;;;5035194;28;20624;-80
2022/05/26 04:15:19;;;;;;;11.83;3.30;;;13.20;99.90;;;;;;5035413;28;20455;-80
2022/05/26 04:17:45;;;;;;;5.87;3.27;;;13.20;99.90;;;;;;5034410;28;20248;-79
2022/05/26 04:20:15;;;;;;;15.07;3.60;;;13.30;99.90;;;;;;5035396;28;20854;-80
2022/05/26 04:22:40;;;;;;;14.57;3.20;;;13.30;99.90;;;;;;5034308;28;20416;-79
2022/05/26 04:25:07;;;;;;;6.73;3.90;;;13.20;99.90;;;;;;5035063;28;20426;-80
2022/05/26 04:27:33;;;;;;;9.93;3.57;;;13.30;99.90;;;;;;5032782;28;20211;-78
2022/05/26 04:30:01;;;;;;;5.30;2.83;;;13.30;99.90;;;;;;5035297;28;20444;-77
2022/05/26 04:32:26;;;;;;;12.80;3.23;;;13.20;99.90;;;;;;5034361;28;20475;-76
2022/05/26 04:34:53;;;;;;;7.83;3.30;;;13.20;99.90;;;;;;5034526;28;20504;-80
2022/05/26 04:37:20;;;;;;;4.27;3.20;;;13.20;99.90;;;;;;5034230;28;20407;-78
2022/05/26 04:39:46;;;;;;;12.60;3.83;;;13.20;99.90;;;;;;5034868;28;20926;-78
2022/05/26 04:42:12;;;;;;;7.83;3.10;;;13.20;99.90;;;;;;5034035;28;20404;-78
2022/05/26 04:44:42;;;;;;;6.30;3.53;;;13.10;99.90;;;;;;5033580;28;20377;-78
2022/05/26 04:47:08;;;;;;;5.83;3.60;;;13.10;99.90;;;;;;5033939;28;20524;-77
2022/05/26 04:49:37;;;;;;;6.13;3.73;;;13.10;99.90;;;;;;5034820;28;20389;-77
2022/05/26 04:52:08;;;;;;;7.30;2.97;;;13.10;99.90;;;;;;5034807;28;20401;-78
2022/05/26 04:54:36;;;;;;;11.13;3.30;;;13.20;99.90;;;;;;5034778;28;20369;-78
2022/05/26 04:57:02;;;;;;;8.40;2.90;;;13.20;99.90;;;;;;5033868;28;20456;-77
2022/05/26 04:59:30;;;;;;;5.90;2.67;;;13.30;99.90;;;;;;5034411;28;20771;-78
2022/05/26 05:01:56;;;;;;;15.00;4.63;;;13.30;99.90;;;;;;5033190;28;20430;-78
2022/05/26 05:04:23;;;;;;;11.80;2.67;;;13.30;99.90;;;;;;5034695;28;20488;-77
2022/05/26 05:06:49;;;;;;;9.53;3.03;;;13.30;99.90;;;;;;5033630;28;20908;-78
2022/05/26 05:09:14;;;;;;;9.60;2.70;;;13.40;99.90;;;;;;5034413;28;20496;-77
2022/05/26 05:11:40;;;;;;;6.90;3.33;;;13.40;99.90;;;;;;5034385;28;20168;-77
2022/05/26 05:14:06;;;;;;;10.30;3.00;;;13.40;99.90;;;;;;5034318;28;20644;-77
2022/05/26 05:16:42;;;;;;;6.47;2.70;;;13.40;99.90;;;;;;5033350;28;20172;-78
2022/05/26 05:19:09;;;;;;;4.87;2.80;;;13.50;99.90;;;;;;5032757;28;20195;-77
2022/05/26 05:21:52;;;;;;;6.30;3.00;;;13.40;99.90;;;;;;5032723;28;20421;-76
2022/05/26 05:24:28;;;;;;;13.23;3.37;;;13.50;99.90;;;;;;5033359;28;20434;-77
2022/05/26 05:27:00;;;;;;;10.27;2.80;;;13.50;99.90;;;;;;5033314;28;20454;-76
2022/05/26 05:29:31;;;;;;;9.00;2.10;;;13.50;99.90;;;;;;5034113;28;20401;-76
2022/05/26 05:32:02;;;;;;;8.83;2.23;;;13.60;99.90;;;;;;5033993;28;20405;-76
2022/05/26 05:34:36;;;;;;;9.60;3.13;;;13.60;99.90;;;;;;5032769;28;20396;-75
2022/05/26 05:37:02;;;;;;;7.33;2.37;;;13.60;99.90;;;;;;5032632;28;20385;-77
2022/05/26 05:39:28;;;;;;;17.13;2.87;;;13.70;99.90;;;;;;5033635;28;20472;-75
2022/05/26 05:41:55;;;;;;;3.03;2.00;;;13.80;99.90;;;;;;5033922;28;20445;-75
2022/05/26 05:44:21;;;;;;;8.77;2.60;;;13.70;99.90;;;;;;5033868;28;20430;-74
2022/05/26 05:46:58;;;;;;;4.60;2.10;;;13.80;99.90;;;;;;5032927;28;20478;-78
2022/05/26 05:49:27;;;;;;;16.57;3.17;;;13.70;99.90;;;;;;5031256;28;20781;-75
2022/05/26 05:51:54;;;;;;;5.23;2.53;;;13.80;99.90;;;;;;5033875;28;20448;-77
2022/05/26 05:54:20;;;;;;;16.63;3.67;;;13.80;99.90;;;;;;5033630;28;20384;-75
2022/05/26 05:56:46;;;;;;;10.17;2.90;;;13.80;99.90;;;;;;5032320;28;20899;-76
2022/05/26 05:59:12;;;;;;;6.13;2.47;;;13.80;99.90;;;;;;5033530;28;20509;-75
2022/05/26 06:01:38;;;;;;;6.90;2.50;;;13.80;99.90;;;;;;5033751;28;20392;-76
2022/05/26 06:04:04;;;;;;;13.63;2.80;;;13.80;99.90;;;;;;5033617;28;20381;-76
2022/05/26 06:06:41;;;;;;;15.80;2.77;;;13.80;99.90;;;;;;5031389;28;20314;-75
2022/05/26 06:09:08;;;;;;;5.77;2.43;;;13.80;99.90;;;;;;5033473;28;20265;-75
2022/05/26 06:11:34;;;;;;;4.80;2.40;;;13.80;99.90;;;;;;5032500;28;20396;-76
2022/05/26 06:14:01;;;;;;;10.07;3.40;;;13.80;99.90;;;;;;5033193;28;20402;-75
2022/05/26 06:16:28;;;;;;;7.07;3.10;;;14.00;99.90;;;;;;5032759;28;20176;-75
2022/05/26 06:18:53;;;;;;;9.87;4.37;;;13.80;98.20;;;;;;5032942;28;20433;-75
2022/05/26 06:21:19;;;;;;;3.60;1.80;;;13.80;95.60;;;;;;5032389;28;20438;-74
2022/05/26 06:23:45;;;;;;;4.70;2.13;;;13.90;83.50;;;;;;5033357;28;20302;-75
2022/05/26 06:26:11;;;;;;;5.63;3.53;;;13.90;72.60;;;;;;5032953;28;20469;-74
2022/05/26 06:31:22;;;;;;;10.73;2.80;;;14.10;79.00;;;;;;5033223;28;20179;-73
2022/05/26 06:39:18;;;;;;;3.90;1.63;;;14.10;1.00;;;;;;5037002;28;20924;-75
2022/05/26 06:44:28;;;;;;;7.30;2.60;;;14.20;1.00;;;;;;5037310;28;20178;-76
2022/05/26 06:46:54;;;;;;;8.00;2.27;;;14.10;1.00;;;;;;5048301;28;20461;-75
2022/05/26 06:49:19;;;;;;;7.60;1.97;;;14.00;1.00;;;;;;5036270;28;20683;-75
2022/05/26 06:51:45;;;;;;;6.63;1.90;;;14.10;1.00;;;;;;5036590;28;20171;-75
2022/05/26 06:54:11;;;;;;;10.63;2.50;;;14.20;1.00;;;;;;5037173;28;20168;-76
2022/05/26 06:56:36;;;;;;;3.17;1.90;;;14.20;1.00;;;;;;5036156;28;20187;-72
2022/05/26 06:59:02;;;;;;;9.80;2.50;;;14.30;1.00;;;;;;5036841;28;20423;-70
2022/05/26 07:01:28;;;;;;;5.70;2.30;;;14.40;1.00;;;;;;5035917;28;20179;-76
2022/05/26 07:03:54;;;;;;;4.03;2.87;;;14.40;1.00;;;;;;5036107;28;20891;-75
2022/05/26 07:06:24;;;;;;;4.93;2.07;;;14.50;1.00;;;;;;5036520;28;20655;-73
2022/05/26 07:08:51;;;;;;;7.80;2.20;;;14.60;99.90;;;;;;5035613;28;20392;-75
2022/05/26 07:11:18;;;;;;;9.03;1.93;;;14.60;99.90;;;;;;5036807;28;20467;-74
2022/05/26 07:13:44;;;;;;;5.40;2.33;;;14.60;99.90;;;;;;5036733;28;20398;-71
2022/05/26 07:16:10;;;;;;;2.63;1.73;;;14.70;99.90;;;;;;5036723;28;20499;-71
2022/05/26 07:18:37;;;;;;;3.17;1.80;;;14.70;99.90;;;;;;5034760;28;20841;-74
2022/05/26 07:21:04;;;;;;;5.33;2.23;;;14.70;99.90;;;;;;5036406;28;20456;-75
2022/05/26 07:23:30;;;;;;;7.40;2.30;;;14.60;99.90;;;;;;5036616;28;20823;-73
2022/05/26 07:25:56;;;;;;;3.17;1.60;;;14.60;99.90;;;;;;5035939;28;20471;-70
2022/05/26 07:28:23;;;;;;;5.83;1.90;;;14.60;99.90;;;;;;5035417;28;20282;-70
2022/05/26 07:30:49;;;;;;;5.37;1.40;;;14.70;99.90;;;;;;5036338;28;20380;-74
2022/05/26 07:33:15;;;;;;;1.80;1.57;;;14.70;99.90;;;;;;5035221;28;20521;-70
2022/05/26 07:35:41;;;;;;;2.17;0.90;;;14.80;99.90;;;;;;5035434;28;20922;-68
2022/05/26 07:43:37;;;;;;;4.20;1.60;;;15.10;99.90;;;;;;5036229;28;20401;-73
2022/05/26 07:46:03;;;;;;;2.60;2.40;;;15.20;99.90;;;;;;5035543;28;20457;-74
2022/05/26 07:48:29;;;;;;;1.97;1.40;;;15.10;99.90;;;;;;5035082;28;20188;-75
2022/05/26 07:50:55;;;;;;;5.00;1.50;;;15.10;99.90;;;;;;5034198;28;20439;-69
2022/05/26 07:53:21;;;;;;;2.80;1.20;;;15.10;99.90;;;;;;5035173;28;20496;-70
2022/05/26 07:55:46;;;;;;;1.00;0.90;;;15.10;99.90;;;;;;5036027;28;20659;-70
2022/05/26 07:58:12;;;;;;;1.50;1.30;;;15.20;99.90;;;;;;5034455;28;20209;-75
2022/05/26 08:00:39;;;;;;;2.23;1.33;;;15.10;99.90;;;;;;5035787;28;20256;-74
2022/05/26 08:03:05;;;;;;;2.60;1.57;;;15.10;99.90;;;;;;5035745;28;20480;-73
2022/05/26 08:05:32;;;;;;;6.90;1.80;;;15.10;99.90;;;;;;5034552;28;20415;-73
2022/05/26 08:07:58;;;;;;;6.30;1.40;;;15.10;99.90;;;;;;5033884;28;21021;-70
2022/05/26 08:10:24;;;;;;;1.57;1.47;;;15.20;99.90;;;;;;5035697;28;20501;-68
2022/05/26 08:12:50;;;;;;;2.70;1.00;;;15.40;99.90;;;;;;5035547;28;20621;-69
2022/05/26 08:15:16;;;;;;;1.97;1.50;;;15.60;99.90;;;;;;5035192;28;20390;-73
2022/05/26 08:17:41;;;;;;;1.47;1.37;;;15.60;99.90;;;;;;5033563;28;20184;-70
2022/05/26 08:20:08;;;;;;;3.13;1.57;;;15.50;99.90;;;;;;5035378;28;20438;-75
2022/05/26 08:22:34;;;;;;;6.33;1.43;;;15.50;99.90;;;;;;5033696;28;20258;-74
2022/05/26 08:25:00;;;;;;;1.67;1.43;;;15.50;99.90;;;;;;5034768;28;20540;-74
2022/05/26 08:27:26;;;;;;;3.87;1.70;;;15.30;99.90;;;;;;5030969;28;20202;-72
2022/05/26 08:29:54;;;;;;;3.60;1.50;;;15.30;99.90;;;;;;5033103;28;20639;-75
2022/05/26 08:32:21;;;;;;;3.17;1.33;;;15.20;99.90;;;;;;5035141;28;21158;-75
2022/05/26 08:34:47;;;;;;;2.10;1.27;;;15.40;99.90;;;;;;5034948;28;20898;-68
2022/05/26 08:37:15;;;;;;;2.50;1.20;;;15.60;99.90;;;;;;5034199;28;20377;-74
2022/05/26 08:39:41;;;;;;;2.37;1.13;;;15.60;99.90;;;;;;5034837;28;20421;-67
2022/05/26 08:42:14;;;;;;;4.70;1.80;;;15.60;99.90;;;;;;5035347;28;20406;-68
2022/05/26 08:44:40;;;;;;;2.90;1.43;;;15.60;99.90;;;;;;5034279;28;20445;-74
2022/05/26 08:47:08;;;;;;;4.07;1.50;;;15.60;99.90;;;;;;5033996;28;20457;-67
2022/05/26 08:49:41;;;;;;;2.50;1.33;;;15.70;99.90;;;;;;5034301;28;20917;-70
2022/05/26 08:52:22;;;;;;;4.20;1.50;;;15.80;99.90;;;;;;5035058;28;20398;-75
2022/05/26 08:54:58;;;;;;;3.47;1.57;;;15.90;99.90;;;;;;5034789;28;20488;-67
2022/05/26 08:57:28;;;;;;;3.93;2.00;;;16.00;99.90;;;;;;5032023;28;20918;-76
2022/05/26 08:59:54;;;;;;;3.10;1.73;;;16.20;99.90;;;;;;5033299;28;20833;-74
2022/05/26 09:02:37;;;;;;;1.50;1.40;;;16.30;99.90;;;;;;5033890;28;20437;-67
2022/05/26 09:05:07;;;;;;;1.77;0.90;;;16.60;99.90;;;;;;5034752;28;20183;-67
2022/05/26 09:13:09;;;;;;;3.47;2.10;;;16.40;99.90;;;;;;5034699;28;20418;-68
2022/05/26 09:15:36;;;;;;;5.97;1.93;;;16.10;99.90;;;;;;5034387;28;20409;-68
2022/05/26 09:18:13;;;;;;;6.80;1.60;;;16.20;99.90;;;;;;5031914;28;20830;-74
2022/05/26 09:20:41;;;;;;;2.57;1.20;;;16.40;99.90;;;;;;5034027;28;20448;-67
2022/05/26 09:23:24;;;;;;;7.50;1.40;;;16.30;99.80;;;;;;5033146;28;20409;-71
2022/05/26 09:26:02;;;;;;;17.13;1.93;;;16.30;99.90;;;;;;5033623;28;20453;-75
2022/05/26 09:28:32;;;;;;;3.00;1.40;;;16.40;99.90;;;;;;5032901;28;20417;-74
2022/05/26 09:31:17;;;;;;;6.83;1.33;;;16.40;99.90;;;;;;5033582;28;20402;-66
2022/05/26 09:33:43;;;;;;;2.77;1.30;;;16.40;99.90;;;;;;5032517;28;20426;-67
2022/05/26 09:36:24;;;;;;;1.60;1.30;;;16.20;95.70;;;;;;5033546;28;20425;-75
2022/05/26 09:38:49;;;;;;;3.60;1.20;;;15.90;96.90;;;;;;5032809;28;20202;-67
2022/05/26 09:41:19;;;;;;;7.97;1.60;;;15.70;96.60;;;;;;5032729;28;20414;-75
2022/05/26 09:43:51;;;;;;;1.47;1.20;;;15.60;99.90;;;;;;5033790;28;20179;-71
2022/05/26 09:46:17;;;;;;;1.30;1.03;;;15.60;98.40;;;;;;5033073;28;20479;-72
2022/05/26 09:48:46;;;;;;;1.70;1.20;;;15.60;99.90;;;;;;5031701;28;20450;-67
2022/05/26 09:51:37;;;;;;;4.70;1.40;;;16.00;99.90;;;;;;5031915;28;20425;-68
2022/05/26 09:54:23;;;;;;;4.50;1.17;;;16.30;96.20;;;;;;5026318;28;20440;-74
2022/05/26 09:56:49;;;;;;;4.40;1.40;;;16.50;95.30;;;;;;5029422;28;20430;-74
2022/05/26 09:59:27;;;;;;;2.23;1.23;;;16.70;94.80;;;;;;5032711;28;20505;-67
2022/05/26 10:02:00;;;;;;;1.90;1.20;;;16.70;94.60;;;;;;5032414;28;20647;-72
2022/05/26 10:04:52;;;;;;;4.60;1.63;;;16.70;94.50;;;;;;5033527;28;20406;-74
2022/05/26 10:07:54;;;;;;;1.07;0.97;;;16.20;94.30;;;;;;5032500;28;20450;-74
2022/05/26 10:10:29;;;;;;;5.23;1.43;;;16.20;94.80;;;;;;5032157;28;20411;-67
2022/05/26 10:13:31;;;;;;;1.60;1.30;;;16.10;99.90;;;;;;5033568;28;20905;-67
2022/05/26 10:16:34;;;;;;;9.30;2.07;;;16.10;95.70;;;;;;5032149;28;20380;-67
2022/05/26 10:19:47;;;;;;;3.53;1.60;;;16.10;94.30;;;;;;5031446;28;20433;-75
2022/05/26 10:22:41;;;;;;;7.63;3.17;;;16.10;94.60;;;;;;5029688;28;20532;-68
2022/05/26 10:25:31;;;;;;;1.37;1.27;;;16.30;94.40;;;;;;5032142;28;20450;-68
2022/05/26 10:28:24;;;;;;;3.67;2.00;;;16.30;94.30;;;;;;5032295;28;20434;-71
2022/05/26 10:31:18;;;;;;;3.93;1.67;;;16.30;96.30;;;;;;5033240;28;20399;-66
2022/05/26 10:33:55;;;;;;;2.80;1.93;;;16.40;94.40;;;;;;5033339;28;20453;-74
2022/05/26 10:37:00;;;;;;;4.27;1.10;;;16.80;94.70;;;;;;5032151;28;20403;-74
2022/05/26 10:39:59;;;;;;;1.10;0.87;;;16.80;94.50;;;;;;5031571;28;20430;-67
2022/05/26 10:42:35;;;;;;;8.43;1.67;;;16.70;94.50;;;;;;5032020;28;20505;-67
2022/05/26 10:45:14;;;;;;;1.43;1.00;;;16.80;95.70;;;;;;5033145;28;20409;-67
2022/05/26 10:47:52;;;;;;;4.20;1.53;;;16.90;90.00;;;;;;5032220;28;20453;-75
2022/05/26 10:50:42;;;;;;;9.37;1.40;;;16.90;83.80;;;;;;5033271;28;20398;-74
2022/05/26 10:53:18;;;;;;;1.53;1.10;;;16.70;76.70;;;;;;5032316;28;20756;-67
2022/05/26 10:56:13;;;;;;;1.20;1.10;;;16.60;79.30;;;;;;5033184;28;20920;-67
2022/05/26 10:58:49;;;;;;;2.10;1.33;;;16.60;84.20;;;;;;5030884;28;20949;-74
2022/05/26 11:01:38;;;;;;;1.57;1.37;;;16.40;82.10;;;;;;5033124;28;20394;-66
2022/05/26 11:04:45;;;;;;;2.03;1.30;;;16.20;80.10;;;;;;5032926;28;20483;-66
2022/05/26 11:07:27;;;;;;;6.03;2.80;;;16.00;77.90;;;;;;5032135;28;20822;-73
2022/05/26 11:09:56;;;;;;;2.00;1.10;;;16.30;81.80;;;;;;5032275;28;20406;-74
2022/05/26 11:12:55;;;;;;;4.80;1.40;;;16.20;85.00;;;;;;5032960;28;20406;-73
2022/05/26 11:18:21;;;;;;;1.43;1.30;;;15.90;85.70;;;;;;5032152;28;20392;-66
2022/05/26 11:20:57;;;;;;;2.70;1.27;;;16.20;92.40;;;;;;5032759;28;20399;-66
2022/05/26 11:23:25;;;;;;;2.67;1.10;;;16.40;88.60;;;;;;5036457;28;20401;-66
2022/05/26 11:26:06;;;;;;;5.73;1.80;;;16.40;90.70;;;;;;5036236;28;20524;-66
2022/05/26 11:28:49;;;;;;;3.50;2.10;;;16.50;89.40;;;;;;5034683;28;20768;-66
2022/05/26 11:37:36;;;;;;;2.17;1.30;;;17.40;81.40;;;;;;5035268;28;20406;-67
2022/05/26 11:40:09;;;;;;;1.53;1.33;;;17.80;85.40;;;;;;5036238;28;20406;-73
2022/05/26 11:42:55;;;;;;;1.20;0.93;;;17.60;65.00;;;;;;5036195;28;20456;-67
2022/05/26 11:45:23;;;;;;;1.30;1.00;;;17.90;62.40;;;;;;5036173;28;20496;-73
2022/05/26 11:47:53;;;;;;;5.53;1.27;;;17.60;57.10;;;;;;5033421;28;20501;-66
2022/05/26 11:50:29;;;;;;;1.63;1.10;;;17.90;62.90;;;;;;5035953;28;20548;-67
2022/05/26 11:52:55;;;;;;;5.37;1.27;;;18.50;62.50;;;;;;5035958;28;20402;-66
2022/05/26 11:55:45;;;;;;;1.10;0.80;;;18.60;52.80;;;;;;5035993;28;20409;-67
2022/05/26 11:58:36;;;;;;;1.47;1.20;;;19.20;46.80;;;;;;5034954;28;20249;-66
2022/05/26 12:01:16;;;;;;;0.90;0.70;;;20.20;48.30;;;;;;5035468;28;20740;-66
2022/05/26 12:03:54;;;;;;;2.07;1.10;;;20.60;33.80;;;;;;5034787;28;20773;-73
2022/05/26 12:06:55;;;;;;;3.50;1.60;;;19.90;25.60;;;;;;5034742;28;20549;-67
2022/05/26 12:09:27;;;;;;;1.17;1.00;;;19.30;22.30;;;;;;5034804;28;20445;-67
2022/05/26 12:12:20;;;;;;;3.10;1.23;;;19.00;18.70;;;;;;5035648;28;20414;-74
2022/05/26 12:14:55;;;;;;;1.37;0.90;;;19.90;29.20;;;;;;5035601;28;20399;-67
2022/05/26 12:17:39;;;;;;;1.70;0.83;;;20.20;24.90;;;;;;5034546;28;20420;-67
2022/05/26 12:20:10;;;;;;;2.67;1.30;;;19.10;15.80;;;;;;5033572;28;20525;-71
2022/05/26 12:22:53;;;;;;;1.10;0.80;;;18.20;7.40;;;;;;5035499;28;20961;-66
2022/05/26 12:25:33;;;;;;;1.90;1.00;;;18.10;11.70;;;;;;5034398;28;20440;-73
2022/05/26 12:28:01;;;;;;;3.10;0.97;;;19.10;15.90;;;;;;5034361;28;20456;-73
2022/05/26 12:30:42;;;;;;;2.57;1.33;;;19.00;15.10;;;;;;5035382;28;20406;-66
2022/05/26 12:33:17;;;;;;;2.97;1.20;;;18.40;10.90;;;;;;5034840;28;20402;-70
2022/05/26 12:36:28;;;;;;;2.70;1.20;;;18.80;14.60;;;;;;5034038;28;20796;-72
2022/05/26 12:39:14;;;;;;;2.50;0.90;;;19.40;15.10;;;;;;5026422;28;20430;-73
2022/05/26 12:42:08;;;;;;;2.07;0.83;;;19.10;13.90;;;;;;5034534;28;20406;-74
2022/05/26 12:44:54;;;;;;;3.90;1.60;;;19.90;18.40;;;;;;5035099;28;20430;-74
2022/05/26 12:47:46;;;;;;;1.43;0.83;;;20.00;7.20;;;;;;5034036;28;20454;-67
2022/05/26 12:50:15;;;;;;;1.90;1.13;;;19.10;4.20;;;;;;5033915;28;20753;-72
2022/05/26 12:52:54;;;;;;;1.20;1.10;;;18.50;1.00;;;;;;5033897;28;20830;-73
2022/05/26 12:55:38;;;;;;;1.30;1.00;;;18.30;1.00;;;;;;5050241;28;20406;-66
2022/05/26 12:58:18;;;;;;;1.57;0.80;;;18.00;1.00;;;;;;5033824;28;20969;-66
2022/05/26 13:01:05;;;;;;;1.20;0.90;;;18.10;1.00;;;;;;5034277;28;20441;-67
2022/05/26 13:03:44;;;;;;;3.70;1.20;;;18.10;1.00;;;;;;5034680;28;20398;-71
2022/05/26 13:06:13;;;;;;;1.93;1.63;;;18.20;1.00;;;;;;5034668;28;20453;-67
2022/05/26 13:09:00;;;;;;;6.67;0.90;;;18.30;1.00;;;;;;5032525;28;20464;-72
2022/05/26 13:11:32;;;;;;;1.70;1.60;;;18.20;1.00;;;;;;5033103;28;20444;-71
2022/05/26 13:14:01;;;;;;;1.40;1.00;;;18.10;1.00;;;;;;5034520;28;20424;-67
2022/05/26 13:16:36;;;;;;;6.80;1.13;;;18.00;1.00;;;;;;5032712;28;20453;-67
2022/05/26 13:19:13;;;;;;;1.87;0.80;;;18.90;3.60;;;;;;5033710;28;20852;-72
2022/05/26 13:21:41;;;;;;;2.97;0.93;;;19.30;1.80;;;;;;5033630;28;20398;-67
2022/05/26 13:24:27;;;;;;;1.73;1.03;;;19.00;4.50;;;;;;5033366;28;20469;-74
2022/05/26 13:27:02;;;;;;;1.10;0.90;;;18.40;1.00;;;;;;5033386;28;20454;-73
2022/05/26 13:29:30;;;;;;;1.97;1.20;;;18.00;1.00;;;;;;5034131;28;20457;-71
2022/05/26 13:34:47;;;;;;;1.23;0.90;;;17.60;1.00;;;;;;5044272;28;20412;-65
2022/05/26 13:37:30;;;;;;;4.27;0.90;;;17.40;1.00;;;;;;5038642;28;20496;-71
2022/05/26 13:40:26;;;;;;;2.17;1.37;;;17.40;1.00;;;;;;5046705;28;20848;-71
2022/05/26 13:42:53;;;;;;;1.60;1.50;;;17.50;1.00;;;;;;5032374;28;20972;-72
2022/05/26 13:45:34;;;;;;;1.70;1.10;;;17.60;1.30;;;;;;5033360;28;20425;-71
2022/05/26 13:48:30;;;;;;;2.37;1.23;;;18.00;1.70;;;;;;5032707;28;20434;-66
2022/05/26 13:50:58;;;;;;;1.97;1.50;;;18.20;2.90;;;;;;5033862;28;20464;-65
2022/05/26 13:53:25;;;;;;;2.00;1.40;;;18.00;1.00;;;;;;5032818;28;20467;-66
2022/05/26 13:55:54;;;;;;;3.23;1.10;;;17.90;1.00;;;;;;5031254;28;20422;-70
2022/05/26 13:58:21;;;;;;;3.00;1.30;;;17.80;1.60;;;;;;5032731;28;20406;-72
2022/05/26 14:00:56;;;;;;;2.60;1.30;;;17.90;4.80;;;;;;5033788;28;20390;-66
2022/05/26 14:03:31;;;;;;;3.43;1.27;;;17.80;2.40;;;;;;5033845;28;20500;-71